Time;durP1;ratioP1;P1;durP2;ratioP2;P2;SDS_P1;SDS_P2;PMS_P1;PMS_P2;Temp;Humidity;BMP_temperature;BMP_pressure;BME280_temperature;BME280_humidity;BME280_pressure;Samples;Min_cycle;Max_cycle;Signal;HPM_P1;HPM_P2
2022/06/11 00:04:15;;;;;;;8.43;2.80;;;;;;;19.61;55.39;100904.34;10418126;28;20064;-78
2022/06/11 00:09:48;;;;;;;5.57;2.20;;;;;;;19.63;55.05;100907.75;10416308;28;20460;-78
2022/06/11 00:14:51;;;;;;;6.60;2.15;;;;;;;19.59;55.03;100917.31;10455028;28;20104;-77
2022/06/11 00:19:54;;;;;;;9.27;2.40;;;;;;;19.62;54.96;100911.50;10440545;28;20552;-78
2022/06/11 00:24:58;;;;;;;6.22;1.98;;;;;;;19.33;55.49;100909.25;10438657;28;20060;-79
2022/06/11 00:30:01;;;;;;;4.85;2.33;;;;;;;19.33;55.59;100901.94;10427221;28;20055;-78
2022/06/11 00:35:05;;;;;;;8.70;2.38;;;;;;;19.46;55.33;100894.09;10412380;28;20081;-78
2022/06/11 00:40:14;;;;;;;7.93;2.30;;;;;;;19.45;55.36;100903.31;10415186;28;20071;-78
2022/06/11 00:45:23;;;;;;;3.83;2.00;;;;;;;19.43;55.63;100899.91;10420525;28;20049;-77
2022/06/11 00:50:37;;;;;;;8.15;2.60;;;;;;;19.39;55.47;100894.94;10418777;28;20057;-78
2022/06/11 00:55:45;;;;;;;5.63;2.00;;;;;;;19.41;55.51;100895.63;10398627;28;20049;-78
2022/06/11 01:00:52;;;;;;;4.55;1.65;;;;;;;19.40;55.55;100886.63;10407423;28;20061;-78
2022/06/11 01:06:07;;;;;;;4.68;2.08;;;;;;;19.44;55.40;100884.41;10414005;28;20147;-77
2022/06/11 01:11:39;;;;;;;6.05;2.10;;;;;;;19.32;55.71;100881.16;10405137;28;20155;-78
2022/06/11 01:16:50;;;;;;;7.20;2.40;;;;;;;19.37;56.03;100886.97;10396246;28;20470;-78
2022/06/11 01:22:08;;;;;;;5.88;2.30;;;;;;;19.29;56.02;100883.41;10399096;28;20682;-78
2022/06/11 01:27:42;;;;;;;4.45;2.15;;;;;;;19.34;56.00;100870.97;10408139;28;21205;-78
2022/06/11 01:32:56;;;;;;;10.35;2.35;;;;;;;19.17;56.44;100877.41;10450568;28;20033;-77
2022/06/11 01:38:06;;;;;;;9.13;2.30;;;;;;;19.31;56.09;100875.88;10459784;28;20108;-78
2022/06/11 01:43:17;;;;;;;6.07;1.95;;;;;;;19.23;56.47;100880.31;10431909;28;20067;-77
2022/06/11 01:48:25;;;;;;;6.53;2.72;;;;;;;19.15;56.73;100885.75;10428431;28;20037;-78
2022/06/11 01:53:54;;;;;;;7.03;2.60;;;;;;;19.07;57.02;100879.47;10438887;28;20064;-77
2022/06/11 01:59:27;;;;;;;4.47;2.42;;;;;;;19.11;57.11;100878.09;10466068;28;20044;-78
2022/06/11 02:04:44;;;;;;;4.07;2.00;;;;;;;19.07;57.17;100874.00;10460711;28;20112;-77
2022/06/11 02:09:54;;;;;;;5.80;2.20;;;;;;;18.97;57.55;100880.44;10475107;28;20061;-76
2022/06/11 02:15:01;;;;;;;7.25;2.80;;;;;;;19.01;57.45;100880.97;10447931;28;20071;-78
2022/06/11 02:20:10;;;;;;;7.13;2.80;;;;;;;19.00;57.62;100882.81;10415256;28;20068;-77
2022/06/11 02:25:18;;;;;;;6.70;2.38;;;;;;;18.94;57.88;100879.94;10420666;28;20060;-77
2022/06/11 02:30:26;;;;;;;7.82;3.97;;;;;;;18.88;57.85;100883.34;10404784;28;20057;-77
2022/06/11 02:35:37;;;;;;;5.55;2.53;;;;;;;18.92;58.12;100879.25;10417629;28;20049;-78
2022/06/11 02:40:43;;;;;;;5.60;2.55;;;;;;;18.84;58.22;100884.66;10421651;28;20568;-77
2022/06/11 02:45:46;;;;;;;6.30;2.50;;;;;;;18.87;58.21;100889.78;10387791;28;20045;-78
2022/06/11 02:50:52;;;;;;;5.47;2.88;;;;;;;18.86;58.50;100888.94;10398842;28;20171;-77
2022/06/11 02:55:55;;;;;;;7.15;2.63;;;;;;;18.79;58.62;100882.47;10397025;28;20050;-78
2022/06/11 03:00:58;;;;;;;6.65;2.60;;;;;;;18.77;58.75;100881.75;10392869;28;20111;-77
2022/06/11 03:06:02;;;;;;;5.20;2.80;;;;;;;18.74;58.78;100880.19;10405863;28;20056;-78
2022/06/11 03:11:05;;;;;;;5.03;2.53;;;;;;;18.75;59.04;100889.22;10403429;28;20049;-78
2022/06/11 03:16:08;;;;;;;6.88;2.42;;;;;;;18.74;59.40;100891.09;10405876;28;20072;-77
2022/06/11 03:21:13;;;;;;;7.18;2.92;;;;;;;18.74;59.46;100884.78;10412010;28;20127;-78
2022/06/11 03:26:16;;;;;;;6.22;2.78;;;;;;;18.74;59.58;100895.69;10397189;28;20050;-78
2022/06/11 03:31:19;;;;;;;10.23;3.28;;;;;;;18.65;59.95;100893.94;10394735;28;20045;-77
2022/06/11 03:36:23;;;;;;;9.15;3.55;;;;;;;18.64;59.86;100895.81;10411542;28;20163;-78
2022/06/11 03:41:27;;;;;;;7.13;2.85;;;;;;;18.68;60.09;100905.38;10420123;28;20125;-78
2022/06/11 03:46:30;;;;;;;3.35;2.65;;;;;;;18.52;60.39;100913.47;10413844;28;20692;-77
2022/06/11 03:51:35;;;;;;;5.55;2.80;;;;;;;18.57;60.59;100916.53;10425722;28;20053;-78
2022/06/11 03:56:40;;;;;;;6.95;2.95;;;;;;;18.63;60.69;100928.63;10430393;28;20053;-77
2022/06/11 04:01:44;;;;;;;8.70;2.90;;;;;;;18.64;61.11;100933.06;10420115;28;20052;-78
2022/06/11 04:06:51;;;;;;;6.40;3.03;;;;;;;18.48;61.82;100934.66;10422527;28;20057;-79
2022/06/11 04:11:54;;;;;;;6.90;3.00;;;;;;;18.66;61.43;100942.75;10412248;28;20062;-77
2022/06/11 04:16:59;;;;;;;7.82;3.45;;;;;;;18.47;61.93;100945.72;10421283;28;20045;-77
2022/06/11 04:22:05;;;;;;;4.82;3.22;;;;;;;18.57;61.86;100951.91;10413234;28;20110;-76
2022/06/11 04:27:10;;;;;;;6.65;4.15;;;;;;;18.59;61.80;100958.03;10420867;28;20060;-77
2022/06/11 04:32:15;;;;;;;9.25;4.00;;;;;;;18.09;63.45;100969.63;10417925;28;20052;-77
2022/06/11 04:37:23;;;;;;;6.07;3.17;;;;;;;18.14;63.96;100980.91;10405414;28;20059;-77
2022/06/11 04:42:27;;;;;;;7.30;3.80;;;;;;;18.27;63.59;100967.72;10409077;28;20049;-77
2022/06/11 04:47:31;;;;;;;9.07;4.38;;;;;;;18.25;64.53;100971.63;10420792;28;20537;-78
2022/06/11 04:52:36;;;;;;;9.82;4.18;;;;;;;18.16;65.58;100978.03;10413059;28;20529;-77
2022/06/11 04:57:39;;;;;;;8.15;3.97;;;;;;;18.02;66.24;100971.28;10406056;28;20072;-78
2022/06/11 05:02:42;;;;;;;9.18;4.85;;;;;;;18.06;66.30;100976.25;10422628;28;20055;-78
2022/06/11 05:07:47;;;;;;;11.05;5.40;;;;;;;18.41;65.37;100984.47;10440456;28;20046;-79
2022/06/11 05:12:50;;;;;;;11.63;5.90;;;;;;;17.91;66.59;100994.13;10410504;28;20053;-79
2022/06/11 05:17:53;;;;;;;9.95;5.88;;;;;;;18.00;65.86;100995.06;10438708;28;20053;-78
2022/06/11 05:22:57;;;;;;;9.93;4.57;;;;;;;17.87;65.33;101001.72;10432971;28;20140;-79
2022/06/11 05:28:02;;;;;;;9.05;4.78;;;;;;;18.03;65.10;101005.63;10424049;28;20132;-79
2022/06/11 05:33:05;;;;;;;5.72;4.10;;;;;;;17.97;65.36;101003.50;10407731;28;20045;-79
2022/06/11 05:38:15;;;;;;;11.65;4.57;;;;;;;17.68;66.46;101008.19;10415586;28;20051;-78
2022/06/11 05:43:18;;;;;;;12.05;5.22;;;;;;;17.91;65.78;101008.56;10395987;28;20053;-78
2022/06/11 05:48:25;;;;;;;8.30;4.78;;;;;;;18.14;65.69;101018.97;10388924;28;20087;-79
2022/06/11 05:53:33;;;;;;;7.40;4.13;;;;;;;17.90;65.52;101017.69;10426752;28;20061;-78
2022/06/11 05:58:40;;;;;;;4.68;3.03;;;;;;;17.75;65.24;101013.84;10406253;28;20654;-79
2022/06/11 06:03:43;;;;;;;5.53;3.03;;;;;;;18.18;64.52;101014.03;10411071;28;20044;-78
2022/06/11 06:08:47;;;;;;;10.00;3.53;;;;;;;17.98;64.19;101014.25;10433584;28;20059;-78
2022/06/11 06:13:50;;;;;;;5.10;2.65;;;;;;;17.92;63.45;101012.13;10425028;28;20057;-79
2022/06/11 06:18:55;;;;;;;3.67;2.17;;;;;;;18.51;62.67;101028.72;10418871;28;20053;-78
2022/06/11 06:23:59;;;;;;;5.82;2.42;;;;;;;18.63;62.21;101013.84;10395185;28;20052;-78
2022/06/11 06:29:03;;;;;;;5.47;2.28;;;;;;;18.59;61.38;101015.16;10414719;28;20053;-78
2022/06/11 06:34:06;;;;;;;3.88;1.92;;;;;;;18.82;60.92;101020.09;10394258;28;20088;-78
2022/06/11 06:39:10;;;;;;;5.90;1.90;;;;;;;18.75;60.97;101012.50;10395206;28;20530;-78
2022/06/11 06:44:13;;;;;;;4.07;1.20;;;;;;;18.96;59.44;101025.75;10425178;28;20060;-78
2022/06/11 06:49:16;;;;;;;2.70;1.20;;;;;;;19.01;60.76;101020.66;10416163;28;20144;-78
2022/06/11 06:54:21;;;;;;;3.17;1.40;;;;;;;18.78;59.58;101025.81;10410927;28;20104;-79
2022/06/11 06:59:24;;;;;;;3.30;1.63;;;;;;;19.49;58.46;101014.66;10396226;28;21321;-78
2022/06/11 07:04:27;;;;;;;2.55;1.27;;;;;;;19.73;57.21;101017.47;10402042;28;20076;-79
2022/06/11 07:09:32;;;;;;;2.17;1.17;;;;;;;19.37;57.64;101038.66;10420380;28;20555;-79
2022/06/11 07:14:35;;;;;;;3.78;1.20;;;;;;;19.97;55.44;101029.41;10407692;28;20056;-79
2022/06/11 07:19:48;;;;;;;2.03;1.25;;;;;;;21.55;51.76;101017.66;10404844;28;20057;-78
2022/06/11 07:24:52;;;;;;;2.90;1.27;;;;;;;23.23;47.61;101013.78;10401959;28;20069;-78
2022/06/11 07:29:58;;;;;;;2.97;1.33;;;;;;;25.22;43.06;101015.41;10391813;28;20572;-79
2022/06/11 07:35:02;;;;;;;2.05;1.05;;;;;;;24.85;44.13;101020.31;10389785;28;20068;-80
2022/06/11 07:40:08;;;;;;;2.45;1.30;;;;;;;25.33;43.33;101014.81;10396453;28;20041;-80
2022/06/11 07:45:12;;;;;;;2.53;1.25;;;;;;;24.73;43.71;100999.94;10385533;28;20053;-79
2022/06/11 07:50:15;;;;;;;1.17;1.00;;;;;;;25.14;43.50;101018.34;10401634;28;20094;-78
2022/06/11 07:55:20;;;;;;;1.88;1.00;;;;;;;22.82;47.17;101025.22;10392538;28;20477;-79
2022/06/11 08:00:26;;;;;;;2.05;1.40;;;;;;;22.03;49.70;101020.22;10409434;28;20048;-76
2022/06/11 08:05:29;;;;;;;2.33;1.00;;;;;;;21.89;50.21;101035.56;10442120;28;20111;-78
2022/06/11 08:10:33;;;;;;;3.22;1.60;;;;;;;21.62;51.46;101042.38;10413384;28;20169;-78
2022/06/11 08:15:36;;;;;;;2.75;1.40;;;;;;;21.73;52.99;101041.13;10399659;28;20053;-78
2022/06/11 08:20:40;;;;;;;2.58;1.33;;;;;;;22.00;51.48;101039.75;10407285;28;20049;-78
2022/06/11 08:25:44;;;;;;;1.98;1.23;;;;;;;21.49;51.84;101042.97;10407620;28;20052;-78
2022/06/11 08:30:47;;;;;;;5.05;1.58;;;;;;;21.09;54.02;101047.63;10390563;28;20064;-78
2022/06/11 08:35:51;;;;;;;3.28;1.38;;;;;;;21.51;51.96;101045.53;10390660;28;20065;-78
2022/06/11 08:40:56;;;;;;;2.53;1.30;;;;;;;21.99;51.37;101046.22;10394645;28;20052;-78
2022/06/11 08:46:02;;;;;;;2.97;1.38;;;;;;;22.46;50.10;101047.88;10398602;28;20462;-78
2022/06/11 08:51:11;;;;;;;5.00;1.67;;;;;;;21.61;51.32;101052.47;10379151;28;20060;-78
2022/06/11 08:56:23;;;;;;;3.50;1.23;;;;;;;21.60;52.06;101055.38;10409815;28;20127;-78
2022/06/11 09:01:34;;;;;;;1.67;0.90;;;;;;;21.91;51.99;101038.09;10380741;28;20045;-78
2022/06/11 09:07:00;;;;;;;3.67;1.20;;;;;;;22.26;50.33;101037.44;10387918;28;20049;-78
2022/06/11 09:12:22;;;;;;;1.80;1.35;;;;;;;23.11;48.33;101027.13;10367940;28;20049;-78
2022/06/11 09:17:51;;;;;;;4.32;1.20;;;;;;;23.52;48.56;101049.34;10400254;28;20061;-77
2022/06/11 09:23:27;;;;;;;3.58;1.30;;;;;;;22.42;49.44;101043.81;10374480;28;20053;-78
2022/06/11 09:28:42;;;;;;;3.95;1.70;;;;;;;21.56;51.91;101052.16;10380513;28;20049;-77
2022/06/11 09:33:51;;;;;;;1.80;1.00;;;;;;;21.55;50.34;101047.72;10398048;28;20430;-77
2022/06/11 09:39:08;;;;;;;4.03;1.20;;;;;;;21.52;51.05;101037.13;10390328;28;20564;-77
2022/06/11 09:44:30;;;;;;;2.42;1.27;;;;;;;22.38;49.45;101046.06;10392555;28;20105;-78
2022/06/11 09:49:43;;;;;;;1.75;1.40;;;;;;;23.07;47.76;101044.97;10374705;28;20076;-79
2022/06/11 09:54:53;;;;;;;2.85;1.40;;;;;;;22.91;46.90;101043.28;10387341;28;20743;-77
2022/06/11 10:00:04;;;;;;;2.70;1.30;;;;;;;22.05;47.75;101053.69;10406283;28;21204;-79
2022/06/11 10:05:15;;;;;;;1.65;1.13;;;;;;;23.12;47.27;101051.63;10392709;28;20447;-78
2022/06/11 10:10:25;;;;;;;2.33;1.07;;;;;;;22.78;47.02;101063.97;10392359;28;20576;-79
2022/06/11 10:15:34;;;;;;;4.13;1.40;;;;;;;23.77;45.54;101063.56;10402012;28;20123;-78
2022/06/11 10:20:41;;;;;;;6.03;1.42;;;;;;;23.92;44.96;101052.53;10395165;28;20473;-82
2022/06/11 10:25:52;;;;;;;1.88;1.10;;;;;;;24.98;44.26;101041.50;10419571;28;20040;-80
2022/06/11 10:30:58;;;;;;;2.88;1.10;;;;;;;24.70;43.67;101047.03;10407075;28;20049;-79
2022/06/11 10:36:07;;;;;;;2.72;1.23;;;;;;;24.62;43.70;101052.69;10402388;28;20049;-80
2022/06/11 10:41:23;;;;;;;5.82;1.40;;;;;;;23.92;44.92;101049.81;10395180;28;20049;-81
2022/06/11 10:46:27;;;;;;;3.30;0.90;;;;;;;24.92;44.21;101048.66;10422305;28;20610;-79
2022/06/11 10:51:34;;;;;;;2.55;0.95;;;;;;;26.32;40.80;101053.75;10414818;28;20092;-80
2022/06/11 10:56:41;;;;;;;1.80;1.00;;;;;;;25.26;42.90;101057.94;10408905;28;20064;-80
2022/06/11 11:01:51;;;;;;;2.60;1.13;;;;;;;23.72;44.60;101041.31;10407867;28;20505;-80
2022/06/11 11:07:09;;;;;;;15.68;1.55;;;;;;;22.49;46.35;101045.63;10435757;28;20052;-79
2022/06/11 11:12:20;;;;;;;14.40;1.52;;;;;;;21.95;48.94;101047.66;10393632;28;20053;-80
2022/06/11 11:17:27;;;;;;;5.70;1.77;;;;;;;22.13;47.72;101056.38;10398978;28;20131;-80
2022/06/11 11:22:30;;;;;;;64.20;4.03;;;;;;;22.22;48.24;101048.97;10414703;28;20548;-78
2022/06/11 11:27:41;;;;;;;6.25;1.25;;;;;;;23.90;45.50;101049.13;10401863;28;20670;-79
2022/06/11 11:32:48;;;;;;;26.63;2.33;;;;;;;22.58;48.20;101048.28;10402171;28;21183;-80
2022/06/11 11:37:59;;;;;;;4.60;1.40;;;;;;;22.74;48.00;101059.91;10408609;28;21256;-78
2022/06/11 11:43:06;;;;;;;1.70;1.00;;;;;;;23.42;46.25;101052.41;10429875;28;20057;-79
2022/06/11 11:48:20;;;;;;;5.85;1.48;;;;;;;24.01;45.17;101040.38;10406439;28;20331;-79
2022/06/11 11:53:28;;;;;;;4.60;1.50;;;;;;;24.87;43.62;101048.41;10406801;28;20096;-78
2022/06/11 11:58:35;;;;;;;24.65;2.38;;;;;;;24.84;44.63;101039.72;10396055;28;20049;-78
2022/06/11 12:03:43;;;;;;;3.05;1.42;;;;;;;23.85;45.60;101057.94;10424244;28;20164;-79
2022/06/11 12:08:49;;;;;;;5.88;1.50;;;;;;;22.64;47.17;101051.13;10395182;28;20106;-78
2022/06/11 12:13:58;;;;;;;6.43;1.80;;;;;;;22.19;48.50;101047.44;10412721;28;20099;-79
2022/06/11 12:19:11;;;;;;;5.43;1.70;;;;;;;23.30;46.32;101042.97;10408861;28;20080;-78
2022/06/11 12:24:17;;;;;;;29.50;2.75;;;;;;;23.99;45.24;101039.72;10403452;28;20071;-77
2022/06/11 12:29:28;;;;;;;3.13;1.13;;;;;;;26.36;40.65;101033.84;10402480;28;20104;-77
2022/06/11 12:34:32;;;;;;;27.00;2.78;;;;;;;25.93;42.18;101030.63;10386238;28;20053;-78
2022/06/11 12:39:47;;;;;;;4.72;0.80;;;;;;;24.23;43.20;101043.09;10413515;28;20083;-78
2022/06/11 12:45:05;;;;;;;1.50;1.30;;;;;;;25.37;41.58;101034.50;10403220;28;20050;-78
2022/06/11 12:50:22;;;;;;;1.98;1.33;;;;;;;25.10;39.83;101033.56;10394507;28;20057;-77
2022/06/11 12:55:45;;;;;;;2.65;1.10;;;;;;;25.26;41.35;101040.56;10398708;28;20090;-78
2022/06/11 13:00:52;;;;;;;2.78;1.00;;;;;;;25.06;41.97;101035.00;10380596;28;20061;-77
2022/06/11 13:06:14;;;;;;;6.55;1.27;;;;;;;24.34;43.76;101039.81;10407075;28;20316;-77
2022/06/11 13:11:25;;;;;;;5.57;1.30;;;;;;;25.12;42.55;101028.69;10394360;28;20069;-76
2022/06/11 13:16:37;;;;;;;1.98;1.67;;;;;;;24.87;42.15;101031.06;10422357;28;20049;-77
2022/06/11 13:21:51;;;;;;;3.53;1.50;;;;;;;25.55;41.14;101029.25;10393057;28;20076;-79
2022/06/11 13:27:06;;;;;;;6.07;1.40;;;;;;;24.83;42.43;101029.81;10423625;28;20102;-78
2022/06/11 13:32:19;;;;;;;3.40;1.20;;;;;;;25.01;40.65;101027.34;10402386;28;20497;-78
2022/06/11 13:37:33;;;;;;;2.00;1.27;;;;;;;25.06;41.93;101021.28;10396330;28;20064;-78
2022/06/11 13:42:48;;;;;;;2.97;1.48;;;;;;;25.36;41.12;101022.66;10399909;28;21244;-78
2022/06/11 13:47:59;;;;;;;4.45;1.33;;;;;;;24.31;42.56;101031.97;10397988;28;20061;-78
2022/06/11 13:58:46;;;;;;;2.65;1.30;;;;;;;26.36;39.85;101016.47;10393522;28;20556;-79
2022/06/11 14:04:18;;;;;;;1.33;1.20;;;;;;;25.98;38.02;101011.56;10427842;28;20053;-79
2022/06/11 14:15:14;;;;;;;2.45;1.05;;;;;;;25.84;40.51;100995.06;10396566;28;20050;-79
2022/06/11 14:20:25;;;;;;;1.95;1.55;;;;;;;26.64;38.13;100996.91;10376701;28;20053;-78
2022/06/11 14:25:35;;;;;;;19.23;2.50;;;;;;;26.28;38.70;100993.59;10382713;28;20049;-78
2022/06/11 14:30:38;;;;;;;6.68;1.27;;;;;;;25.41;39.40;100998.13;10406435;28;20579;-80
2022/06/11 14:35:55;;;;;;;3.65;1.42;;;;;;;25.75;38.33;100984.44;10415550;28;20049;-78
2022/06/11 14:41:19;;;;;;;1.77;1.40;;;;;;;26.98;38.11;100975.59;10437497;28;20083;-78
2022/06/11 14:46:48;;;;;;;2.15;1.60;;;;;;;27.52;36.64;100983.41;10386984;28;20050;-80
2022/06/11 14:52:24;;;;;;;4.95;1.63;;;;;;;25.62;38.94;100988.88;10393949;28;20091;-80
2022/06/11 14:57:33;;;;;;;3.83;1.20;;;;;;;25.61;38.79;100976.16;10406586;28;20136;-80
2022/06/11 15:02:55;;;;;;;5.13;1.42;;;;;;;26.14;38.64;100986.38;10416983;28;20060;-79
2022/06/11 15:08:13;;;;;;;6.07;1.40;;;;;;;26.48;37.76;100978.94;10407601;28;20143;-79
2022/06/11 15:13:49;;;;;;;4.53;1.20;;;;;;;26.36;37.77;100964.16;10372390;28;20057;-79
2022/06/11 15:18:55;;;;;;;1.55;1.00;;;;;;;26.72;37.91;100967.19;10399794;28;20072;-79
2022/06/11 15:24:04;;;;;;;4.57;1.10;;;;;;;27.51;36.57;100964.28;10393012;28;20048;-78
2022/06/11 15:29:11;;;;;;;3.72;0.95;;;;;;;27.76;35.90;100969.88;10406563;28;20173;-79
2022/06/11 15:34:24;;;;;;;2.80;1.65;;;;;;;27.19;36.30;100961.50;10405654;28;20041;-79
2022/06/11 15:39:28;;;;;;;2.38;1.05;;;;;;;25.52;38.00;100966.41;10398531;28;20049;-79
2022/06/11 15:44:42;;;;;;;2.22;1.10;;;;;;;26.16;38.61;100967.72;10401866;28;20068;-79
2022/06/11 15:49:46;;;;;;;2.30;1.40;;;;;;;25.80;38.55;100959.91;10407571;28;20060;-80
2022/06/11 15:55:14;;;;;;;5.78;1.40;;;;;;;26.58;38.22;100953.69;10400379;28;20056;-80
2022/06/11 16:00:37;;;;;;;4.03;1.20;;;;;;;26.90;38.30;100947.22;10392438;28;20049;-80
2022/06/11 16:05:49;;;;;;;12.18;4.85;;;;;;;28.11;36.15;100947.28;10392284;28;20664;-80
2022/06/11 16:11:02;;;;;;;7.32;1.77;;;;;;;25.78;37.74;100943.63;10395411;28;20678;-79
2022/06/11 16:16:16;;;;;;;45.95;2.83;;;;;;;26.46;36.92;100937.81;10401219;28;20061;-79
2022/06/11 16:21:26;;;;;;;1.17;0.85;;;;;;;25.84;37.89;100958.44;10396736;28;20050;-78
2022/06/11 16:26:45;;;;;;;3.60;1.20;;;;;;;27.07;36.74;100942.06;10404444;28;20513;-80
2022/06/11 16:31:50;;;;;;;2.08;1.20;;;;;;;28.96;33.97;100949.31;10400502;28;20548;-80
2022/06/11 16:37:54;;;;;;;2.60;1.38;;;;;;;30.81;31.09;100934.28;10401530;28;20037;-77
2022/06/11 16:43:31;;;;;;;2.35;1.40;;;;;;;32.95;29.31;100940.84;10432006;28;20060;-76
2022/06/11 16:48:58;;;;;;;1.77;1.13;;;;;;;34.98;26.22;100935.13;10434174;28;20042;-78
2022/06/11 16:59:54;;;;;;;2.67;1.00;;;;;;;33.11;27.85;100921.25;10398625;28;20098;-77
2022/06/11 17:05:43;;;;;;;2.63;1.30;;;;;;;33.87;26.97;100927.81;10419535;28;20058;-78
2022/06/11 17:11:11;;;;;;;3.60;1.00;;;;;;;34.31;26.37;100920.06;10349865;28;20053;-77
2022/06/11 17:16:23;;;;;;;4.28;1.40;;;;;;;33.64;26.73;100927.09;10400996;28;20061;-79
2022/06/11 17:21:35;;;;;;;4.10;1.02;;;;;;;33.16;27.25;100928.84;10412698;28;20719;-77
2022/06/11 17:26:42;;;;;;;2.83;1.00;;;;;;;34.74;25.97;100931.97;10395284;28;20235;-76
2022/06/11 17:31:49;;;;;;;2.40;1.05;;;;;;;33.06;27.54;100931.50;10417472;28;20045;-78
2022/06/11 17:37:00;;;;;;;2.70;0.98;;;;;;;33.41;27.17;100931.03;10424229;28;20127;-78
2022/06/11 17:42:11;;;;;;;2.90;1.00;;;;;;;32.57;28.42;100915.59;10410224;28;20059;-78
2022/06/11 17:47:17;;;;;;;3.72;1.20;;;;;;;30.00;30.47;100934.09;10427756;28;20045;-78
2022/06/11 17:52:28;;;;;;;2.47;1.10;;;;;;;26.27;36.64;100941.47;10411311;28;20037;-77
2022/06/11 17:57:32;;;;;;;3.80;1.13;;;;;;;26.44;36.60;100945.47;10417172;28;20034;-78
2022/06/11 18:02:39;;;;;;;2.30;1.20;;;;;;;25.49;38.35;100939.34;10359175;28;20053;-79
2022/06/11 18:07:44;;;;;;;3.15;1.20;;;;;;;24.87;39.58;100943.16;10350095;28;20103;-79
2022/06/11 18:12:47;;;;;;;3.97;1.45;;;;;;;24.02;41.14;100942.44;10352810;28;20058;-77
2022/06/11 18:17:53;;;;;;;4.97;1.13;;;;;;;23.41;42.63;100942.94;10365338;28;20627;-77
2022/06/11 18:28:18;;;;;;;4.05;1.30;;;;;;;22.80;44.04;100959.72;10371617;28;20049;-79
2022/06/11 18:33:22;;;;;;;4.25;1.40;;;;;;;23.07;43.73;100949.09;10367989;28;20091;-79
2022/06/11 18:38:26;;;;;;;4.50;1.23;;;;;;;23.37;43.16;100960.84;10364378;28;20403;-79
2022/06/11 18:43:29;;;;;;;5.43;1.38;;;;;;;23.43;42.92;100955.41;10395159;28;20049;-80
2022/06/11 18:48:32;;;;;;;4.55;1.95;;;;;;;23.49;43.35;100951.03;10381794;28;20470;-79
2022/06/11 18:53:36;;;;;;;5.10;1.98;;;;;;;23.37;43.31;100945.22;10371566;28;20056;-81
2022/06/11 18:58:39;;;;;;;4.80;1.83;;;;;;;22.64;44.94;100958.03;10363981;28;20050;-77
2022/06/11 19:03:54;;;;;;;4.60;1.25;;;;;;;22.52;45.40;100963.13;10361645;28;20132;-80
2022/06/11 19:08:58;;;;;;;2.35;1.10;;;;;;;22.36;45.58;100959.72;10356391;28;20069;-79
2022/06/11 19:14:02;;;;;;;5.88;1.83;;;;;;;21.81;46.03;100970.00;10384391;28;20085;-80
2022/06/11 19:19:05;;;;;;;3.47;1.83;;;;;;;22.13;46.00;100965.25;10382702;28;20045;-80
2022/06/11 19:24:10;;;;;;;3.22;1.30;;;;;;;22.18;46.23;100971.84;10398014;28;20054;-79
2022/06/11 19:29:13;;;;;;;3.63;1.50;;;;;;;22.10;46.53;100969.19;10384705;28;20143;-79
2022/06/11 19:34:18;;;;;;;3.47;1.33;;;;;;;22.05;47.91;100972.50;10402043;28;20057;-78
2022/06/11 19:39:25;;;;;;;3.17;1.90;;;;;;;21.72;48.13;100979.25;10389906;28;20219;-79
2022/06/11 19:44:31;;;;;;;3.55;1.35;;;;;;;21.74;48.26;100964.38;10408685;28;20046;-78
2022/06/11 19:49:34;;;;;;;4.97;2.03;;;;;;;21.79;47.79;100972.06;10403397;28;20042;-79
2022/06/11 19:54:42;;;;;;;4.57;1.60;;;;;;;21.55;49.35;100978.53;10401134;28;20049;-78
2022/06/11 19:59:45;;;;;;;4.45;2.10;;;;;;;21.19;48.70;100974.50;10404249;28;20033;-78
2022/06/11 20:04:49;;;;;;;5.43;2.53;;;;;;;21.22;49.04;100976.03;10401911;28;20064;-80
2022/06/11 20:09:56;;;;;;;10.40;2.97;;;;;;;21.17;49.05;100978.44;10410550;28;20041;-79
2022/06/11 20:15:00;;;;;;;7.80;3.47;;;;;;;21.15;48.85;100980.53;10369368;28;20089;-77
2022/06/11 20:20:04;;;;;;;9.93;4.00;;;;;;;21.10;49.44;100983.78;10406257;28;20111;-78
2022/06/11 20:25:12;;;;;;;5.50;3.38;;;;;;;20.94;49.06;100981.09;10400604;28;20168;-77
2022/06/11 20:30:23;;;;;;;5.43;1.98;;;;;;;20.72;48.56;100996.38;10408263;28;20102;-77
2022/06/11 20:35:28;;;;;;;5.05;1.90;;;;;;;20.40;48.98;100998.16;10354816;28;20046;-78
2022/06/11 20:40:34;;;;;;;6.75;1.90;;;;;;;20.21;49.43;100999.38;10336533;28;20132;-79
2022/06/11 20:45:36;;;;;;;6.43;2.10;;;;;;;19.98;50.33;100992.94;10349093;28;20056;-80
2022/06/11 20:50:39;;;;;;;5.32;2.25;;;;;;;20.02;50.19;100991.53;10359750;28;20056;-79
2022/06/11 20:55:45;;;;;;;6.38;2.47;;;;;;;20.02;50.63;100986.09;10353664;28;20065;-79
2022/06/11 21:00:48;;;;;;;6.40;2.63;;;;;;;20.03;50.51;100985.94;10362496;28;20061;-78
2022/06/11 21:05:50;;;;;;;6.75;2.42;;;;;;;20.05;50.81;100985.78;10346184;28;20096;-79
2022/06/11 21:10:55;;;;;;;8.85;2.65;;;;;;;19.97;50.50;100983.91;10352073;28;20050;-79
2022/06/11 21:15:57;;;;;;;5.40;2.95;;;;;;;19.85;50.68;100988.81;10356276;28;20560;-81
2022/06/11 21:21:01;;;;;;;5.00;2.42;;;;;;;19.56;50.88;100988.50;10361235;28;21089;-78
2022/06/11 21:26:06;;;;;;;6.93;2.50;;;;;;;19.28;51.58;100994.22;10357718;28;20042;-79
2022/06/11 21:31:09;;;;;;;6.78;2.70;;;;;;;19.39;51.88;100993.91;10347148;28;20141;-79
2022/06/11 21:36:13;;;;;;;6.30;2.65;;;;;;;19.60;51.60;101000.75;10357719;28;20056;-79
2022/06/11 21:46:39;;;;;;;10.07;2.85;;;;;;;19.64;50.90;101002.13;10360957;28;20064;-78
2022/06/11 21:51:43;;;;;;;7.63;2.92;;;;;;;19.59;51.07;100991.72;10368202;28;20091;-80
2022/06/11 21:56:47;;;;;;;10.85;4.00;;;;;;;19.61;51.01;100999.72;10378448;28;20068;-77
2022/06/11 22:01:59;;;;;;;7.90;3.30;;;;;;;19.73;50.91;101006.56;10376015;28;20054;-77
2022/06/11 22:07:03;;;;;;;10.50;5.88;;;;;;;19.90;50.57;101001.97;10361392;28;20038;-78
2022/06/11 22:12:08;;;;;;;9.00;4.78;;;;;;;19.95;50.55;100998.72;10370774;28;20117;-78
2022/06/11 22:17:12;;;;;;;14.02;6.78;;;;;;;19.80;50.34;100999.41;10373790;28;20526;-78
2022/06/11 22:22:18;;;;;;;17.35;8.55;;;;;;;19.70;50.96;101006.06;10394809;28;20057;-78
2022/06/11 22:27:27;;;;;;;16.88;7.68;;;;;;;19.62;51.26;101012.34;10398128;28;20063;-78
2022/06/11 22:32:34;;;;;;;8.57;2.75;;;;;;;19.71;50.84;101019.50;10368640;28;20050;-77
2022/06/11 22:37:37;;;;;;;12.50;2.78;;;;;;;19.65;50.28;101012.84;10410654;28;20045;-78
2022/06/11 22:42:42;;;;;;;6.07;2.90;;;;;;;19.48;51.02;101027.44;10409348;28;20105;-78
2022/06/11 22:47:45;;;;;;;11.77;2.90;;;;;;;18.92;51.07;101015.34;10401400;28;20041;-78
2022/06/11 22:52:50;;;;;;;6.68;2.42;;;;;;;18.90;52.69;101009.25;10395683;28;20096;-76
2022/06/11 22:57:54;;;;;;;7.70;2.65;;;;;;;18.87;51.86;101015.84;10419579;28;20038;-78
2022/06/11 23:03:02;;;;;;;6.25;2.60;;;;;;;18.75;51.92;101015.25;10417304;28;20053;-78
2022/06/11 23:08:06;;;;;;;10.75;2.95;;;;;;;18.88;51.61;101022.16;10413927;28;20095;-77
2022/06/11 23:13:16;;;;;;;8.27;2.83;;;;;;;19.11;51.15;101008.78;10406263;28;20045;-77
2022/06/11 23:18:20;;;;;;;9.45;3.15;;;;;;;19.21;50.53;101014.94;10403613;28;20112;-79
2022/06/11 23:23:23;;;;;;;8.48;2.53;;;;;;;19.23;50.24;101010.19;10389917;28;20049;-79
2022/06/11 23:28:27;;;;;;;7.38;2.97;;;;;;;19.24;50.50;101012.75;10379916;28;20053;-77
2022/06/11 23:33:30;;;;;;;9.65;3.00;;;;;;;19.02;50.28;101019.66;10372569;28;20038;-78
2022/06/11 23:38:34;;;;;;;8.45;3.00;;;;;;;18.91;51.14;101013.66;10373030;28;20045;-79
2022/06/11 23:43:39;;;;;;;9.68;3.15;;;;;;;18.65;51.44;101019.09;10384159;28;20053;-78
2022/06/11 23:48:45;;;;;;;7.78;2.95;;;;;;;18.20;53.95;101020.19;10352507;28;20054;-77
2022/06/11 23:53:49;;;;;;;10.20;2.92;;;;;;;18.08;54.34;101030.47;10366438;28;20059;-79
2022/06/11 23:58:54;;;;;;;8.25;3.40;;;;;;;18.20;53.41;101033.78;10370296;28;20049;-77
